Time;durP1;ratioP1;P1;durP2;ratioP2;P2;SDS_P1;SDS_P2;PMS_P1;PMS_P2;Temp;Humidity;BMP_temperature;BMP_pressure;BME280_temperature;BME280_humidity;BME280_pressure;Samples;Min_cycle;Max_cycle;Signal;HPM_P1;HPM_P2
2023/02/22 00:00:35;;;;;;;0.83;0.40;;;6.40;99.90;;;;;;5075297;28;20426;-80
2023/02/22 00:03:02;;;;;;;0.97;0.83;;;6.30;99.90;;;;;;5075914;28;20436;-80
2023/02/22 00:05:31;;;;;;;0.40;0.40;;;6.30;99.90;;;;;;5075453;28;20468;-80
2023/02/22 00:07:59;;;;;;;3.50;0.70;;;6.30;99.90;;;;;;5075408;28;20465;-80
2023/02/22 00:10:27;;;;;;;0.47;0.47;;;6.30;99.90;;;;;;5075061;28;20477;-77
2023/02/22 00:12:55;;;;;;;0.50;0.50;;;6.30;99.90;;;;;;5075019;28;20453;-76
2023/02/22 00:15:26;;;;;;;0.47;0.47;;;6.40;99.90;;;;;;5075051;28;20453;-76
2023/02/22 00:17:53;;;;;;;0.60;0.40;;;6.30;99.90;;;;;;5074693;28;20469;-77
2023/02/22 00:20:22;;;;;;;4.20;0.50;;;6.30;99.90;;;;;;5074882;28;20446;-77
2023/02/22 00:22:52;;;;;;;1.77;0.60;;;6.30;99.90;;;;;;5074842;28;20450;-77
2023/02/22 00:25:21;;;;;;;0.40;0.30;;;6.30;99.90;;;;;;5075031;28;20523;-77
2023/02/22 00:27:50;;;;;;;3.10;1.37;;;6.40;99.90;;;;;;5074699;28;20473;-77
2023/02/22 00:30:20;;;;;;;1.60;1.50;;;6.40;99.90;;;;;;5074506;28;20481;-76
2023/02/22 00:32:47;;;;;;;0.70;0.40;;;6.40;99.90;;;;;;5074625;28;20456;-80
2023/02/22 00:35:15;;;;;;;1.37;0.73;;;6.40;99.90;;;;;;5074610;28;20452;-79
2023/02/22 00:37:41;;;;;;;0.60;0.60;;;6.40;99.90;;;;;;5074118;28;20489;-80
2023/02/22 00:40:11;;;;;;;2.70;0.90;;;6.40;99.90;;;;;;5074458;28;20448;-80
2023/02/22 00:42:38;;;;;;;1.37;0.50;;;6.30;99.90;;;;;;5074118;28;20442;-80
2023/02/22 00:45:06;;;;;;;3.20;0.60;;;6.30;99.90;;;;;;5074081;28;20814;-80
2023/02/22 00:47:33;;;;;;;0.30;0.30;;;6.30;99.90;;;;;;5074333;28;20465;-80
2023/02/22 00:50:00;;;;;;;0.93;0.40;;;6.30;99.90;;;;;;5074240;28;20488;-80
2023/02/22 00:52:27;;;;;;;1.00;0.90;;;6.20;99.90;;;;;;5074334;28;20477;-80
2023/02/22 00:54:53;;;;;;;0.60;0.50;;;6.20;99.90;;;;;;5074386;28;20449;-80
2023/02/22 00:57:22;;;;;;;1.07;0.60;;;6.20;99.90;;;;;;5074624;28;20473;-80
2023/02/22 00:59:49;;;;;;;2.67;0.73;;;6.10;99.90;;;;;;5074160;28;20452;-80
2023/02/22 01:02:16;;;;;;;0.40;0.40;;;6.10;99.90;;;;;;5074111;28;20453;-79
2023/02/22 01:04:43;;;;;;;0.97;0.60;;;6.10;99.90;;;;;;5073634;28;20811;-79
2023/02/22 01:07:10;;;;;;;0.60;0.60;;;6.00;99.90;;;;;;5073928;28;20469;-80
2023/02/22 01:09:38;;;;;;;0.43;0.40;;;6.00;99.90;;;;;;5073570;28;20449;-80
2023/02/22 01:12:06;;;;;;;1.73;0.70;;;6.00;99.90;;;;;;5073873;28;20445;-80
2023/02/22 01:14:34;;;;;;;1.10;0.60;;;6.00;99.90;;;;;;5073563;28;20454;-79
2023/02/22 01:17:01;;;;;;;1.70;0.40;;;6.00;99.90;;;;;;5073680;28;20466;-80
2023/02/22 01:19:28;;;;;;;0.60;0.50;;;6.00;99.90;;;;;;5073810;28;20454;-80
2023/02/22 01:21:55;;;;;;;0.50;0.50;;;6.00;99.90;;;;;;5073381;28;20817;-80
2023/02/22 01:24:21;;;;;;;0.63;0.47;;;6.00;99.90;;;;;;5073686;28;20449;-80
2023/02/22 01:26:50;;;;;;;0.87;0.83;;;6.00;99.90;;;;;;5073617;28;20461;-79
2023/02/22 01:29:19;;;;;;;1.50;0.50;;;6.00;99.90;;;;;;5073662;28;20523;-80
2023/02/22 01:31:53;;;;;;;1.63;0.50;;;6.00;99.90;;;;;;5073539;28;20535;-80
2023/02/22 01:34:21;;;;;;;0.50;0.47;;;6.00;99.90;;;;;;5073641;28;20555;-79
2023/02/22 01:36:48;;;;;;;2.90;0.40;;;6.00;99.90;;;;;;5073205;28;20469;-79
2023/02/22 01:39:16;;;;;;;0.83;0.50;;;6.00;99.90;;;;;;5073573;28;20804;-79
2023/02/22 01:41:43;;;;;;;2.50;0.40;;;6.00;99.90;;;;;;5073474;28;20442;-79
2023/02/22 01:44:25;;;;;;;0.60;0.60;;;5.90;99.90;;;;;;5073660;28;20449;-80
2023/02/22 01:46:53;;;;;;;1.77;1.00;;;5.90;99.90;;;;;;5073347;28;20821;-80
2023/02/22 01:49:21;;;;;;;0.50;0.50;;;5.90;99.90;;;;;;5073412;28;20456;-80
2023/02/22 01:51:51;;;;;;;0.40;0.30;;;5.90;99.90;;;;;;5073276;28;20492;-79
2023/02/22 01:54:22;;;;;;;0.60;0.60;;;5.90;99.90;;;;;;5073102;28;20928;-80
2023/02/22 01:56:55;;;;;;;0.33;0.30;;;5.90;99.90;;;;;;5073278;28;20473;-80
2023/02/22 01:59:23;;;;;;;0.37;0.30;;;5.90;99.90;;;;;;5073901;28;20430;-80
2023/02/22 02:01:50;;;;;;;0.93;0.60;;;5.90;99.90;;;;;;5073245;28;20445;-80
2023/02/22 02:04:24;;;;;;;1.10;0.60;;;5.80;99.90;;;;;;5073263;28;20449;-80
2023/02/22 02:06:51;;;;;;;7.03;1.13;;;5.80;99.90;;;;;;5073263;28;20457;-80
2023/02/22 02:09:25;;;;;;;2.00;0.33;;;5.80;99.90;;;;;;5073196;28;20450;-79
2023/02/22 02:11:53;;;;;;;0.80;0.80;;;5.80;99.90;;;;;;5073049;28;20531;-80
2023/02/22 02:14:20;;;;;;;0.50;0.50;;;5.80;99.90;;;;;;5072747;28;20457;-80
2023/02/22 02:16:50;;;;;;;0.57;0.57;;;5.80;99.90;;;;;;5075070;28;20492;-80
2023/02/22 02:19:28;;;;;;;0.87;0.80;;;5.80;99.90;;;;;;5077516;28;20430;-80
2023/02/22 02:22:24;;;;;;;0.80;0.70;;;5.80;99.90;;;;;;5076887;28;20436;-80
2023/02/22 02:25:27;;;;;;;0.90;0.50;;;5.80;99.90;;;;;;5066987;28;20458;-80
2023/02/22 02:28:19;;;;;;;0.70;0.50;;;5.80;99.90;;;;;;5045921;28;20560;-80
2023/02/22 02:31:21;;;;;;;0.53;0.53;;;5.70;99.90;;;;;;5046093;28;20481;-79
2023/02/22 02:33:54;;;;;;;0.67;0.60;;;5.80;99.90;;;;;;5077251;28;20429;-80
2023/02/22 02:36:30;;;;;;;0.40;0.40;;;5.80;99.90;;;;;;5076922;28;20925;-80
2023/02/22 02:39:05;;;;;;;1.63;0.73;;;5.90;99.90;;;;;;5076440;28;20485;-80
2023/02/22 02:41:36;;;;;;;1.00;0.60;;;5.90;99.90;;;;;;5076766;28;20429;-79
2023/02/22 02:44:08;;;;;;;1.70;0.50;;;5.90;99.90;;;;;;5076895;28;20445;-80
2023/02/22 02:46:41;;;;;;;2.33;0.50;;;6.00;99.90;;;;;;5076612;28;20465;-80
2023/02/22 02:49:13;;;;;;;1.07;0.50;;;6.10;99.90;;;;;;5076693;28;20434;-79
2023/02/22 02:51:45;;;;;;;3.10;0.50;;;6.10;99.90;;;;;;5076555;28;20646;-80
2023/02/22 02:54:14;;;;;;;0.93;0.50;;;6.10;99.90;;;;;;5076251;28;20467;-79
2023/02/22 02:56:42;;;;;;;2.10;1.90;;;6.10;99.90;;;;;;5076095;28;20968;-80
2023/02/22 02:59:25;;;;;;;0.40;0.37;;;6.00;99.90;;;;;;5076422;28;20480;-80
2023/02/22 03:02:04;;;;;;;0.70;0.50;;;5.90;99.90;;;;;;5076476;28;20456;-79
2023/02/22 03:04:44;;;;;;;1.17;0.53;;;5.90;99.90;;;;;;5076428;28;20448;-79
2023/02/22 03:07:30;;;;;;;1.17;0.60;;;5.80;99.90;;;;;;5077150;28;20460;-79
2023/02/22 03:10:13;;;;;;;0.67;0.40;;;5.80;99.90;;;;;;5076277;28;20433;-80
2023/02/22 03:12:47;;;;;;;3.70;0.80;;;5.70;99.90;;;;;;5076261;28;20455;-80
2023/02/22 03:15:27;;;;;;;0.80;0.70;;;5.70;99.90;;;;;;5076252;28;20408;-80
2023/02/22 03:18:00;;;;;;;0.47;0.47;;;5.70;99.90;;;;;;5076020;28;20457;-80
2023/02/22 03:20:34;;;;;;;3.03;0.60;;;5.70;99.90;;;;;;5076161;28;20436;-80
2023/02/22 03:23:06;;;;;;;0.93;0.90;;;5.60;99.90;;;;;;5076086;28;20428;-80
2023/02/22 03:25:38;;;;;;;1.27;0.80;;;5.60;99.90;;;;;;5075825;28;20408;-80
2023/02/22 03:28:10;;;;;;;0.60;0.40;;;5.50;99.90;;;;;;5074513;28;20538;-80
2023/02/22 03:30:40;;;;;;;0.60;0.50;;;5.50;99.90;;;;;;5075908;28;20470;-80
2023/02/22 03:33:11;;;;;;;1.13;0.53;;;5.40;99.90;;;;;;5075611;28;20437;-80
2023/02/22 03:35:44;;;;;;;0.57;0.43;;;5.40;99.90;;;;;;5075874;28;20429;-80
2023/02/22 03:38:16;;;;;;;0.60;0.50;;;5.40;99.90;;;;;;5075355;28;20833;-79
2023/02/22 03:40:45;;;;;;;0.30;0.30;;;5.30;99.90;;;;;;5075655;28;20806;-80
2023/02/22 03:43:16;;;;;;;1.07;0.87;;;5.30;99.90;;;;;;5075475;28;20445;-80
2023/02/22 03:45:45;;;;;;;1.07;0.50;;;5.30;99.90;;;;;;5075690;28;20453;-79
2023/02/22 03:48:19;;;;;;;1.07;0.80;;;5.30;99.90;;;;;;5075793;28;20977;-80
2023/02/22 03:50:49;;;;;;;0.53;0.50;;;5.20;99.90;;;;;;5075523;28;20500;-80
2023/02/22 03:53:18;;;;;;;1.37;0.40;;;5.20;99.90;;;;;;5075550;28;20458;-80
2023/02/22 03:55:46;;;;;;;0.60;0.60;;;5.10;99.90;;;;;;5075559;28;20933;-80
2023/02/22 03:58:14;;;;;;;0.40;0.40;;;5.10;99.90;;;;;;5075437;28;20469;-79
2023/02/22 04:00:43;;;;;;;0.60;0.47;;;5.10;99.90;;;;;;5075452;28;20445;-80
2023/02/22 04:03:11;;;;;;;1.73;0.60;;;5.10;99.90;;;;;;5075329;28;20813;-80
2023/02/22 04:05:38;;;;;;;1.27;0.50;;;5.00;99.90;;;;;;5075117;28;20944;-80
2023/02/22 04:08:06;;;;;;;0.87;0.87;;;5.00;99.90;;;;;;5075139;28;20465;-80
2023/02/22 04:10:33;;;;;;;0.60;0.60;;;4.90;99.90;;;;;;5074985;28;20476;-80
2023/02/22 04:13:00;;;;;;;0.90;0.90;;;4.90;99.90;;;;;;5075284;28;20449;-79
2023/02/22 04:15:26;;;;;;;0.90;0.90;;;4.90;99.90;;;;;;5075224;28;20460;-80
2023/02/22 04:17:53;;;;;;;0.70;0.70;;;4.90;99.90;;;;;;5075081;28;20496;-80
2023/02/22 04:20:24;;;;;;;0.30;0.30;;;4.90;99.90;;;;;;5074844;28;20457;-80
2023/02/22 04:22:51;;;;;;;0.57;0.50;;;4.80;99.90;;;;;;5074752;28;20901;-80
2023/02/22 04:25:19;;;;;;;1.90;0.60;;;4.80;99.90;;;;;;5074560;28;20957;-80
2023/02/22 04:27:46;;;;;;;0.60;0.60;;;4.80;99.90;;;;;;5074361;28;20976;-80
2023/02/22 04:30:13;;;;;;;1.50;0.90;;;4.80;99.90;;;;;;5074439;28;20452;-80
2023/02/22 04:32:40;;;;;;;0.53;0.40;;;4.80;99.90;;;;;;5074774;28;20485;-80
2023/02/22 04:35:07;;;;;;;1.80;0.50;;;4.80;99.90;;;;;;5074617;28;20452;-81
2023/02/22 04:37:34;;;;;;;1.23;0.50;;;4.80;99.90;;;;;;5074224;28;20481;-80
2023/02/22 04:40:06;;;;;;;0.40;0.40;;;4.80;99.90;;;;;;5073777;28;20454;-80
2023/02/22 04:42:34;;;;;;;0.60;0.40;;;4.80;99.90;;;;;;5074544;28;20479;-80
2023/02/22 04:45:01;;;;;;;1.23;1.23;;;4.80;99.90;;;;;;5074162;28;20995;-80
2023/02/22 04:47:28;;;;;;;0.50;0.50;;;4.80;99.90;;;;;;5074073;28;20473;-80
2023/02/22 04:49:55;;;;;;;0.30;0.30;;;4.70;99.90;;;;;;5074417;28;20446;-80
2023/02/22 04:52:22;;;;;;;1.47;0.40;;;4.70;99.90;;;;;;5074214;28;21025;-80
2023/02/22 04:54:49;;;;;;;0.50;0.40;;;4.70;99.90;;;;;;5074430;28;20450;-80
2023/02/22 04:57:16;;;;;;;1.70;0.40;;;4.70;99.90;;;;;;5074092;28;20609;-80
2023/02/22 04:59:44;;;;;;;0.97;0.63;;;4.70;99.90;;;;;;5074178;28;20453;-78
2023/02/22 05:02:11;;;;;;;1.70;0.70;;;4.80;99.90;;;;;;5074124;28;20810;-80
2023/02/22 05:04:38;;;;;;;0.50;0.50;;;4.90;99.90;;;;;;5074912;28;20454;-80
2023/02/22 05:07:05;;;;;;;0.43;0.43;;;5.00;99.90;;;;;;5073637;28;20976;-80
2023/02/22 05:09:32;;;;;;;0.40;0.40;;;5.10;99.90;;;;;;5073691;28;20929;-80
2023/02/22 05:11:58;;;;;;;6.57;1.20;;;5.10;99.90;;;;;;5073441;28;21007;-80
2023/02/22 05:14:25;;;;;;;0.77;0.77;;;5.20;99.90;;;;;;5073963;28;20450;-80
2023/02/22 05:16:54;;;;;;;0.60;0.40;;;5.20;99.90;;;;;;5073829;28;20473;-80
2023/02/22 05:19:21;;;;;;;1.10;0.50;;;5.20;99.90;;;;;;5073840;28;20453;-80
2023/02/22 05:21:48;;;;;;;0.50;0.50;;;5.20;99.90;;;;;;5073770;28;20441;-80
2023/02/22 05:24:15;;;;;;;2.97;0.40;;;5.20;99.90;;;;;;5073725;28;20461;-80
2023/02/22 05:26:42;;;;;;;0.40;0.37;;;5.20;99.90;;;;;;5073351;28;20968;-80
2023/02/22 05:29:09;;;;;;;0.47;0.47;;;5.20;99.90;;;;;;5073673;28;20452;-80
2023/02/22 05:31:36;;;;;;;0.30;0.20;;;5.10;99.90;;;;;;5073573;28;20488;-80
2023/02/22 05:34:04;;;;;;;0.87;0.50;;;5.10;99.90;;;;;;5073361;28;20426;-80
2023/02/22 05:36:31;;;;;;;1.00;0.70;;;5.10;99.90;;;;;;5073884;28;20464;-80
2023/02/22 05:38:58;;;;;;;0.30;0.30;;;5.20;99.90;;;;;;5073084;28;20477;-80
2023/02/22 05:41:24;;;;;;;1.07;0.73;;;5.20;99.90;;;;;;5073121;28;20953;-80
2023/02/22 05:43:51;;;;;;;0.40;0.30;;;5.30;99.90;;;;;;5073515;28;20449;-80
2023/02/22 05:46:18;;;;;;;2.00;0.60;;;5.30;99.90;;;;;;5073044;28;20937;-80
2023/02/22 05:48:45;;;;;;;0.50;0.50;;;5.40;99.90;;;;;;5073120;28;20445;-80
2023/02/22 05:51:13;;;;;;;0.60;0.50;;;5.40;99.90;;;;;;5072552;28;20445;-80
2023/02/22 05:53:41;;;;;;;1.40;0.87;;;5.40;99.90;;;;;;5073358;28;20453;-80
2023/02/22 05:56:08;;;;;;;1.50;0.80;;;5.50;99.90;;;;;;5073346;28;20453;-80
2023/02/22 05:58:34;;;;;;;1.00;0.60;;;5.50;99.90;;;;;;5072959;28;21009;-80
2023/02/22 06:01:01;;;;;;;0.80;0.50;;;5.50;99.90;;;;;;5073277;28;20520;-80
2023/02/22 06:03:28;;;;;;;2.87;1.00;;;5.50;99.90;;;;;;5073252;28;20438;-80
2023/02/22 06:05:54;;;;;;;1.27;0.50;;;5.50;99.90;;;;;;5073235;28;20449;-80
2023/02/22 06:08:23;;;;;;;2.60;0.80;;;5.50;99.90;;;;;;5073374;28;20462;-80
2023/02/22 06:10:49;;;;;;;1.30;0.93;;;5.50;99.90;;;;;;5073126;28;20449;-80
2023/02/22 06:13:16;;;;;;;0.50;0.50;;;5.50;99.90;;;;;;5073057;28;20484;-80
2023/02/22 06:15:43;;;;;;;1.63;1.10;;;5.50;99.90;;;;;;5073154;28;20457;-80
2023/02/22 06:18:09;;;;;;;2.83;0.90;;;5.50;99.90;;;;;;5073070;28;20466;-80
2023/02/22 06:20:36;;;;;;;1.00;1.00;;;5.50;99.90;;;;;;5073153;28;20453;-80
2023/02/22 06:23:03;;;;;;;0.70;0.40;;;5.60;99.90;;;;;;5072970;28;20448;-78
2023/02/22 06:25:31;;;;;;;1.83;0.50;;;5.60;99.90;;;;;;5072731;28;20450;-80
2023/02/22 06:27:58;;;;;;;1.43;0.50;;;5.60;99.90;;;;;;5072993;28;20472;-80
2023/02/22 06:30:26;;;;;;;0.50;0.50;;;5.70;99.90;;;;;;5073060;28;20445;-80
2023/02/22 06:32:53;;;;;;;1.17;0.70;;;5.70;99.90;;;;;;5073023;28;20485;-80
2023/02/22 06:35:20;;;;;;;2.87;0.70;;;5.80;99.90;;;;;;5073114;28;20450;-80
2023/02/22 06:37:47;;;;;;;0.60;0.53;;;5.80;99.90;;;;;;5072505;28;20481;-80
2023/02/22 06:40:15;;;;;;;0.70;0.40;;;5.80;99.90;;;;;;5072971;28;20469;-80
2023/02/22 06:42:43;;;;;;;0.70;0.50;;;5.90;99.90;;;;;;5072932;28;20446;-80
2023/02/22 06:45:10;;;;;;;0.93;0.83;;;5.90;99.90;;;;;;5072904;28;20457;-80
2023/02/22 06:47:40;;;;;;;0.37;0.37;;;5.90;99.90;;;;;;5072812;28;20473;-80
2023/02/22 06:50:11;;;;;;;1.73;0.67;;;5.90;99.90;;;;;;5072876;28;20551;-80
2023/02/22 06:52:42;;;;;;;3.80;0.50;;;5.90;99.90;;;;;;5072794;28;20458;-80
2023/02/22 06:55:09;;;;;;;0.97;0.97;;;5.90;99.90;;;;;;5072805;28;20453;-80
2023/02/22 06:57:35;;;;;;;0.40;0.40;;;5.90;99.90;;;;;;5072899;28;20465;-80
2023/02/22 07:00:04;;;;;;;0.50;0.50;;;5.90;99.90;;;;;;5072455;28;20446;-80
2023/02/22 07:02:30;;;;;;;0.90;0.53;;;5.90;99.90;;;;;;5074196;28;20449;-80
2023/02/22 07:04:57;;;;;;;0.73;0.40;;;5.90;99.90;;;;;;5076438;28;20445;-80
2023/02/22 07:07:24;;;;;;;0.93;0.77;;;5.90;99.90;;;;;;5076012;28;20987;-80
2023/02/22 07:09:51;;;;;;;1.70;0.60;;;5.90;99.90;;;;;;5076604;28;20438;-81
2023/02/22 07:12:17;;;;;;;1.03;0.90;;;6.00;99.90;;;;;;5076200;28;20481;-80
2023/02/22 07:14:44;;;;;;;0.50;0.30;;;6.10;99.90;;;;;;5076544;28;20456;-80
2023/02/22 07:17:12;;;;;;;0.63;0.63;;;6.10;99.90;;;;;;5076157;28;20469;-80
2023/02/22 07:19:39;;;;;;;2.00;0.40;;;6.20;99.90;;;;;;5076215;28;20453;-80
2023/02/22 07:22:05;;;;;;;2.00;0.70;;;6.20;99.90;;;;;;5076111;28;20449;-80
2023/02/22 07:24:33;;;;;;;0.50;0.50;;;6.30;99.90;;;;;;5076092;28;20828;-80
2023/02/22 07:27:01;;;;;;;0.60;0.60;;;6.40;99.90;;;;;;5075984;28;20466;-80
2023/02/22 07:29:28;;;;;;;0.60;0.50;;;6.40;99.90;;;;;;5075872;28;20786;-80
2023/02/22 07:31:56;;;;;;;1.63;1.00;;;6.50;99.90;;;;;;5075570;28;21013;-80
2023/02/22 07:34:24;;;;;;;1.63;0.73;;;6.60;99.90;;;;;;5075874;28;20453;-80
2023/02/22 07:36:51;;;;;;;4.33;1.00;;;6.80;99.90;;;;;;5075594;28;20469;-80
2023/02/22 07:39:18;;;;;;;0.30;0.30;;;6.90;99.90;;;;;;5075843;28;20492;-80
2023/02/22 07:41:44;;;;;;;0.80;0.47;;;7.00;99.90;;;;;;5075982;28;20543;-80
2023/02/22 07:44:11;;;;;;;1.27;0.50;;;7.00;99.90;;;;;;5077163;28;20449;-80
2023/02/22 07:46:38;;;;;;;1.13;0.90;;;7.00;99.90;;;;;;5075868;28;20469;-80
2023/02/22 07:49:05;;;;;;;1.00;0.80;;;7.10;99.90;;;;;;5075506;28;20438;-80
2023/02/22 07:51:33;;;;;;;1.60;1.00;;;7.10;99.90;;;;;;5075584;28;20453;-80
2023/02/22 07:53:59;;;;;;;1.83;0.90;;;7.20;99.90;;;;;;5075693;28;20481;-80
2023/02/22 07:56:26;;;;;;;1.20;1.10;;;7.30;99.90;;;;;;5075916;28;20516;-80
2023/02/22 07:58:53;;;;;;;1.00;0.90;;;7.30;99.90;;;;;;5075791;28;20469;-80
2023/02/22 08:01:20;;;;;;;1.97;0.77;;;7.40;99.90;;;;;;5075244;28;20453;-80
2023/02/22 08:03:46;;;;;;;2.83;1.30;;;7.40;99.90;;;;;;5076042;28;20445;-80
2023/02/22 08:06:13;;;;;;;1.37;1.00;;;7.50;99.90;;;;;;5076078;28;20449;-80
2023/02/22 08:08:41;;;;;;;2.03;0.80;;;7.60;99.90;;;;;;5076064;28;20797;-80
2023/02/22 08:11:08;;;;;;;2.10;1.13;;;7.60;99.90;;;;;;5075625;28;20485;-80
2023/02/22 08:13:36;;;;;;;4.27;2.30;;;7.70;99.90;;;;;;5074987;28;20501;-80
2023/02/22 08:16:03;;;;;;;0.47;0.47;;;7.60;99.90;;;;;;5075816;28;20445;-80
2023/02/22 08:18:30;;;;;;;1.43;1.00;;;7.70;99.90;;;;;;5075435;28;20457;-80
2023/02/22 08:20:57;;;;;;;1.10;0.70;;;7.70;99.90;;;;;;5075499;28;20442;-80
2023/02/22 08:23:25;;;;;;;1.87;0.80;;;7.70;99.90;;;;;;5075460;28;20975;-80
2023/02/22 08:25:54;;;;;;;1.43;1.33;;;7.70;99.90;;;;;;5075199;28;21008;-80
2023/02/22 08:28:23;;;;;;;4.00;0.87;;;7.70;99.90;;;;;;5075638;28;20534;-79
2023/02/22 08:30:50;;;;;;;1.13;1.00;;;7.70;99.90;;;;;;5075791;28;20442;-79
2023/02/22 08:33:18;;;;;;;2.70;1.03;;;7.80;99.90;;;;;;5075058;28;20481;-80
2023/02/22 08:35:48;;;;;;;5.87;1.87;;;7.80;99.90;;;;;;5075538;28;20466;-80
2023/02/22 08:38:22;;;;;;;2.53;1.17;;;7.70;99.90;;;;;;5074685;28;20528;-80
2023/02/22 08:40:49;;;;;;;0.50;0.50;;;7.80;99.90;;;;;;5074636;28;20905;-79
2023/02/22 08:43:18;;;;;;;1.47;1.47;;;7.90;99.90;;;;;;5074552;28;20936;-80
2023/02/22 08:45:45;;;;;;;4.00;0.70;;;8.00;99.90;;;;;;5074392;28;20453;-80
2023/02/22 08:48:13;;;;;;;1.73;1.03;;;8.10;99.90;;;;;;5074676;28;20470;-80
2023/02/22 08:50:41;;;;;;;3.47;0.93;;;8.40;99.90;;;;;;5074575;28;20488;-80
2023/02/22 08:53:09;;;;;;;2.00;0.50;;;8.60;99.90;;;;;;5074604;28;20489;-80
2023/02/22 08:55:38;;;;;;;0.70;0.70;;;9.00;99.90;;;;;;5074419;28;20454;-80
2023/02/22 08:58:08;;;;;;;0.60;0.50;;;9.40;99.90;;;;;;5074046;28;21011;-80
2023/02/22 09:00:37;;;;;;;0.80;0.77;;;9.80;99.90;;;;;;5074838;28;20484;-80
2023/02/22 09:03:05;;;;;;;1.73;0.70;;;10.20;99.90;;;;;;5074609;28;20462;-80
2023/02/22 09:05:32;;;;;;;0.90;0.90;;;10.50;99.90;;;;;;5074332;28;20449;-80
2023/02/22 09:08:00;;;;;;;0.50;0.50;;;10.80;99.90;;;;;;5073987;28;21007;-80
2023/02/22 09:10:28;;;;;;;3.43;0.93;;;11.10;99.90;;;;;;5074147;28;20441;-80
2023/02/22 09:12:56;;;;;;;2.00;0.83;;;11.50;99.90;;;;;;5074133;28;20837;-83
2023/02/22 09:15:24;;;;;;;2.30;1.17;;;12.10;99.90;;;;;;5074317;28;20464;-79
2023/02/22 09:17:52;;;;;;;1.63;0.80;;;12.80;99.90;;;;;;5073748;28;21091;-80
2023/02/22 09:20:20;;;;;;;1.77;1.20;;;13.70;99.90;;;;;;5074253;28;20446;-80
2023/02/22 09:22:48;;;;;;;1.40;1.00;;;14.50;99.90;;;;;;5074459;28;20449;-78
2023/02/22 09:25:16;;;;;;;2.47;1.00;;;15.10;99.90;;;;;;5073867;28;20443;-78
2023/02/22 09:27:43;;;;;;;2.10;1.10;;;15.70;99.90;;;;;;5074099;28;20477;-79
2023/02/22 09:30:16;;;;;;;2.17;0.87;;;16.40;99.90;;;;;;5073919;28;20932;-79
2023/02/22 09:32:43;;;;;;;7.23;1.67;;;17.50;99.90;;;;;;5073907;28;20465;-79
2023/02/22 09:35:11;;;;;;;1.87;1.20;;;18.80;97.30;;;;;;5073662;28;20441;-79
2023/02/22 09:37:38;;;;;;;3.47;1.70;;;19.90;93.80;;;;;;5073554;28;20488;-80
2023/02/22 09:40:09;;;;;;;1.97;1.43;;;20.80;90.90;;;;;;5073696;28;20458;-80
2023/02/22 09:42:41;;;;;;;2.90;1.10;;;21.30;84.50;;;;;;5073923;28;20491;-80
2023/02/22 09:45:16;;;;;;;1.83;1.13;;;21.80;79.40;;;;;;5073871;28;20433;-80
2023/02/22 09:47:49;;;;;;;2.90;1.50;;;22.00;76.60;;;;;;5074040;28;20471;-80
2023/02/22 09:50:22;;;;;;;1.57;1.40;;;22.30;75.10;;;;;;5074081;28;20440;-77
2023/02/22 09:52:56;;;;;;;2.80;1.30;;;22.50;71.80;;;;;;5073717;28;20476;-81
2023/02/22 09:55:33;;;;;;;3.00;1.50;;;22.50;69.10;;;;;;5074199;28;20441;-80
2023/02/22 09:58:03;;;;;;;8.33;2.60;;;22.70;69.70;;;;;;5073812;28;20476;-80
2023/02/22 10:00:33;;;;;;;1.03;0.90;;;22.80;67.20;;;;;;5074621;28;20433;-80
2023/02/22 10:03:14;;;;;;;2.00;1.77;;;23.10;67.00;;;;;;5073977;28;20863;-80
2023/02/22 10:05:48;;;;;;;1.87;1.60;;;23.50;65.50;;;;;;5073976;28;20433;-78
2023/02/22 10:08:17;;;;;;;2.30;1.33;;;23.60;64.00;;;;;;5074275;28;20476;-78
2023/02/22 10:10:51;;;;;;;2.87;1.43;;;23.50;63.80;;;;;;5073628;28;20441;-79
2023/02/22 10:13:28;;;;;;;2.30;1.27;;;23.30;63.90;;;;;;5074328;28;20470;-79
2023/02/22 10:16:00;;;;;;;1.80;1.27;;;22.70;64.50;;;;;;5074258;28;20923;-80
2023/02/22 10:19:07;;;;;;;6.07;1.63;;;22.10;65.00;;;;;;5074174;28;20461;-80
2023/02/22 10:21:47;;;;;;;2.80;1.43;;;21.50;64.30;;;;;;5074579;28;20433;-79
2023/02/22 10:24:25;;;;;;;2.50;1.57;;;21.10;63.60;;;;;;5074476;28;20441;-80
2023/02/22 10:26:53;;;;;;;2.17;1.43;;;20.80;66.40;;;;;;5073094;28;20498;-80
2023/02/22 10:29:30;;;;;;;3.90;1.47;;;20.90;65.70;;;;;;5072890;28;20449;-79
2023/02/22 10:31:59;;;;;;;2.03;1.40;;;21.50;64.80;;;;;;5073931;28;20452;-79
2023/02/22 10:34:29;;;;;;;2.57;1.40;;;22.30;62.50;;;;;;5073092;28;20487;-80
2023/02/22 10:37:08;;;;;;;3.07;1.13;;;23.30;59.90;;;;;;5073848;28;20473;-80
2023/02/22 10:39:37;;;;;;;2.77;0.80;;;24.10;58.50;;;;;;5077386;28;20448;-80
2023/02/22 10:42:06;;;;;;;4.07;1.63;;;24.70;57.20;;;;;;5077010;28;20213;-80
2023/02/22 10:44:33;;;;;;;2.00;1.00;;;25.20;55.00;;;;;;5077028;28;20203;-80
2023/02/22 10:47:03;;;;;;;2.40;1.08;;;25.60;53.70;;;;;;5076855;28;20226;-80
2023/02/22 10:49:36;;;;;;;1.20;0.90;;;25.80;53.50;;;;;;5076958;28;20203;-80
2023/02/22 10:52:10;;;;;;;3.40;0.93;;;25.30;52.70;;;;;;5077172;28;20187;-80
2023/02/22 10:54:41;;;;;;;2.00;1.40;;;24.70;53.30;;;;;;5076698;28;20228;-80
2023/02/22 10:57:08;;;;;;;1.58;0.80;;;24.70;54.10;;;;;;5076373;28;20729;-80
2023/02/22 10:59:37;;;;;;;1.30;1.20;;;25.00;54.20;;;;;;5076624;28;20548;-80
2023/02/22 11:02:17;;;;;;;0.93;0.88;;;25.20;52.50;;;;;;5076624;28;20210;-80
2023/02/22 11:04:47;;;;;;;3.22;0.98;;;25.20;50.80;;;;;;5076825;28;20183;-82
2023/02/22 11:07:23;;;;;;;1.08;0.85;;;24.70;51.60;;;;;;5076127;28;20718;-81
2023/02/22 11:09:52;;;;;;;1.40;1.10;;;23.90;52.30;;;;;;5076525;28;20240;-79
2023/02/22 11:12:26;;;;;;;5.20;1.33;;;22.90;53.30;;;;;;5076194;28;20735;-83
2023/02/22 11:14:53;;;;;;;1.00;0.90;;;22.10;54.00;;;;;;5076507;28;20468;-80
2023/02/22 11:17:31;;;;;;;1.10;1.10;;;21.40;56.10;;;;;;5076254;28;20468;-80
2023/02/22 11:19:59;;;;;;;1.63;0.90;;;20.60;57.50;;;;;;5076076;28;20801;-80
2023/02/22 11:22:40;;;;;;;1.73;1.07;;;20.10;57.90;;;;;;5076250;28;20429;-80
2023/02/22 11:25:07;;;;;;;1.50;1.03;;;19.60;59.40;;;;;;5076304;28;20433;-80
2023/02/22 11:27:40;;;;;;;0.93;0.80;;;19.10;60.50;;;;;;5076025;28;20476;-80
2023/02/22 11:30:27;;;;;;;3.27;0.80;;;18.80;60.00;;;;;;5076291;28;20426;-79
2023/02/22 11:32:57;;;;;;;2.53;0.70;;;18.40;59.90;;;;;;5075750;28;20433;-80
2023/02/22 11:35:38;;;;;;;1.63;0.80;;;18.20;60.00;;;;;;5075980;28;20830;-79
2023/02/22 11:38:17;;;;;;;2.00;0.90;;;17.90;61.10;;;;;;5075633;28;20980;-79
2023/02/22 11:40:44;;;;;;;1.30;0.83;;;17.70;62.20;;;;;;5075915;28;20430;-79
2023/02/22 11:43:16;;;;;;;1.20;0.50;;;17.60;61.40;;;;;;5075829;28;20445;-79
2023/02/22 11:46:01;;;;;;;1.33;1.00;;;17.50;62.50;;;;;;5075504;28;20934;-79
2023/02/22 11:48:31;;;;;;;1.03;0.90;;;17.40;64.10;;;;;;5074311;28;20477;-79
2023/02/22 11:51:12;;;;;;;2.50;1.03;;;17.30;63.00;;;;;;5075593;28;20452;-79
2023/02/22 11:54:07;;;;;;;7.03;0.80;;;17.40;62.80;;;;;;5076178;28;20476;-79
2023/02/22 11:56:39;;;;;;;1.17;0.60;;;17.50;63.40;;;;;;5075629;28;20540;-78
2023/02/22 11:59:19;;;;;;;2.50;0.60;;;17.50;62.50;;;;;;5075635;28;20430;-78
2023/02/22 12:01:51;;;;;;;0.80;0.60;;;17.40;64.50;;;;;;5075481;28;20531;-79
2023/02/22 12:04:50;;;;;;;2.53;0.80;;;17.30;64.80;;;;;;5075275;28;20443;-79
2023/02/22 12:07:32;;;;;;;1.90;0.90;;;17.30;63.90;;;;;;5049498;28;20465;-79
2023/02/22 12:10:11;;;;;;;1.10;0.77;;;17.20;63.70;;;;;;5075429;28;20434;-77
2023/02/22 12:12:47;;;;;;;0.97;0.70;;;16.90;64.80;;;;;;5075950;28;20440;-79
2023/02/22 12:15:23;;;;;;;2.00;0.70;;;16.90;66.10;;;;;;5075407;28;20469;-80
2023/02/22 12:17:55;;;;;;;1.50;0.73;;;16.80;66.00;;;;;;5075313;28;20469;-79
2023/02/22 12:20:24;;;;;;;3.10;1.07;;;16.70;66.50;;;;;;5074914;28;20433;-79
2023/02/22 12:23:01;;;;;;;2.73;0.93;;;16.70;66.40;;;;;;5075079;28;20442;-79
2023/02/22 12:25:34;;;;;;;3.40;1.40;;;16.70;67.40;;;;;;5075245;28;20465;-79
2023/02/22 12:28:16;;;;;;;1.13;0.70;;;16.60;67.00;;;;;;5075082;28;20469;-79
2023/02/22 12:30:46;;;;;;;2.80;0.93;;;16.70;67.70;;;;;;5075096;28;20426;-79
2023/02/22 12:33:18;;;;;;;0.93;0.93;;;16.60;67.30;;;;;;5074804;28;20410;-80
2023/02/22 12:35:51;;;;;;;2.53;0.73;;;16.60;68.00;;;;;;5075066;28;20544;-80
2023/02/22 12:38:24;;;;;;;1.13;0.63;;;16.50;68.60;;;;;;5074996;28;20485;-80
2023/02/22 12:40:58;;;;;;;1.60;0.93;;;16.40;68.80;;;;;;5076331;28;20444;-80
2023/02/22 12:43:29;;;;;;;1.50;1.00;;;16.40;69.00;;;;;;5074951;28;20437;-80
2023/02/22 12:46:03;;;;;;;3.47;1.30;;;16.30;69.60;;;;;;5074922;28;20483;-80
2023/02/22 12:48:43;;;;;;;1.93;1.00;;;16.20;69.50;;;;;;5074531;28;20465;-80
2023/02/22 12:51:25;;;;;;;2.20;1.20;;;16.10;71.10;;;;;;5074575;28;20436;-80
2023/02/22 12:54:00;;;;;;;3.37;1.80;;;16.10;73.10;;;;;;5074298;28;21006;-80
2023/02/22 12:56:34;;;;;;;3.83;1.53;;;16.00;73.10;;;;;;5074494;28;20433;-79
2023/02/22 12:59:07;;;;;;;2.30;1.43;;;15.90;74.00;;;;;;5074461;28;20433;-79
2023/02/22 13:01:37;;;;;;;6.53;1.27;;;15.70;75.30;;;;;;5075219;28;20909;-80
2023/02/22 13:04:07;;;;;;;1.33;1.10;;;15.60;76.40;;;;;;5076281;28;20426;-80
2023/02/22 13:06:59;;;;;;;3.53;1.40;;;15.50;77.30;;;;;;5074488;28;20481;-80
2023/02/22 13:09:53;;;;;;;2.03;1.83;;;15.50;77.40;;;;;;5046826;28;20453;-80